Time;durP1;ratioP1;P1;durP2;ratioP2;P2;SDS_P1;SDS_P2;PMS_P1;PMS_P2;Temp;Humidity;BMP_temperature;BMP_pressure;BME280_temperature;BME280_humidity;BME280_pressure;Samples;Min_cycle;Max_cycle;Signal;HPM_P1;HPM_P2
2023/08/28 00:03:21;;;;;;;2.95;1.10;;;22.70;75.30;;;;;;10518038;28;20048;-37
2023/08/28 00:08:23;;;;;;;;;;;23.10;74.10;;;;;;10531662;28;20109;-39
2023/08/28 00:13:26;;;;;;;3.33;1.03;;;21.70;84.90;;;;;;10527765;28;19973;-34
2023/08/28 00:18:28;;;;;;;4.68;1.35;;;21.80;84.30;;;;;;10521427;28;20129;-29
2023/08/28 00:23:32;;;;;;;2.92;1.25;;;22.80;77.20;;;;;;10505651;28;20048;-31
2023/08/28 00:28:35;;;;;;;1.75;0.93;;;23.20;74.70;;;;;;10506443;28;20040;-36
2023/08/28 00:33:37;;;;;;;4.63;1.13;;;22.70;77.10;;;;;;10509890;28;20444;-32
2023/08/28 00:38:39;;;;;;;;;;;23.50;73.10;;;;;;10521373;28;20079;-33
2023/08/28 00:43:42;;;;;;;1.88;1.08;;;23.30;72.50;;;;;;10516832;28;20431;-35
2023/08/28 00:48:44;;;;;;;3.25;0.98;;;23.60;70.90;;;;;;10514295;28;20093;-31
2023/08/28 00:53:47;;;;;;;;;;;23.70;71.50;;;;;;10518003;28;20113;-35
2023/08/28 00:58:50;;;;;;;;;;;23.50;71.30;;;;;;10518158;28;20358;-34
2023/08/28 01:03:52;;;;;;;1.85;0.95;;;23.30;71.20;;;;;;10513036;28;19959;-34
2023/08/28 01:09:04;;;;;;;1.73;0.80;;;23.60;71.00;;;;;;10512787;28;20056;-40
2023/08/28 01:14:14;;;;;;;1.70;0.90;;;23.60;70.40;;;;;;10518503;28;20040;-33
2023/08/28 01:19:27;;;;;;;2.67;1.25;;;23.60;71.30;;;;;;10515988;28;20051;-40
2023/08/28 01:24:31;;;;;;;2.65;1.10;;;23.60;71.00;;;;;;10526412;28;20110;-32
2023/08/28 01:29:34;;;;;;;1.88;1.00;;;23.70;70.30;;;;;;10508870;28;20541;-31
2023/08/28 01:34:39;;;;;;;1.73;1.05;;;23.60;70.20;;;;;;10523368;28;20127;-32
2023/08/28 01:39:46;;;;;;;3.78;1.33;;;23.70;70.10;;;;;;10519532;28;20044;-34
2023/08/28 01:44:54;;;;;;;1.20;0.82;;;23.60;69.30;;;;;;10525182;28;20462;-32
2023/08/28 01:49:56;;;;;;;1.83;0.80;;;23.50;69.50;;;;;;10524502;28;20147;-35
2023/08/28 01:54:58;;;;;;;;;;;23.50;69.60;;;;;;10514300;28;20443;-31
2023/08/28 02:00:01;;;;;;;2.47;1.00;;;23.50;70.00;;;;;;10525349;28;19973;-31
2023/08/28 02:05:03;;;;;;;1.45;0.90;;;23.40;69.70;;;;;;10506691;28;20486;-37
2023/08/28 02:10:05;;;;;;;;;;;23.40;69.90;;;;;;10527726;28;20495;-38
2023/08/28 02:15:09;;;;;;;4.00;0.90;;;23.40;69.20;;;;;;10512079;28;19978;-31
2023/08/28 02:20:11;;;;;;;1.88;0.93;;;23.50;69.30;;;;;;10515676;28;20483;-34
2023/08/28 02:25:13;;;;;;;;;;;23.40;69.90;;;;;;10512681;28;20036;-31
2023/08/28 02:30:17;;;;;;;3.30;1.05;;;23.40;69.70;;;;;;10520809;28;19927;-31
2023/08/28 02:35:21;;;;;;;1.40;0.65;;;23.40;69.90;;;;;;10525601;28;20390;-34
2023/08/28 02:40:24;;;;;;;1.83;0.90;;;23.50;70.40;;;;;;10505276;28;20044;-31
2023/08/28 02:45:27;;;;;;;0.95;0.50;;;23.40;70.60;;;;;;10502577;28;20048;-31
2023/08/28 02:50:29;;;;;;;2.78;0.63;;;23.00;72.50;;;;;;10530623;28;20086;-37
2023/08/28 02:55:31;;;;;;;1.02;0.63;;;23.10;72.60;;;;;;10517121;28;20040;-35
2023/08/28 03:15:33;;;;;;;1.60;0.60;;;22.60;75.80;;;;;;10543662;27;20117;-36
2023/08/28 03:20:35;;;;;;;0.95;0.40;;;22.80;74.20;;;;;;10565903;28;20749;-31
2023/08/28 03:25:37;;;;;;;1.10;0.43;;;22.90;73.60;;;;;;10561249;28;20105;-34
2023/08/28 03:30:40;;;;;;;1.08;0.50;;;23.10;72.70;;;;;;10556621;28;20504;-31
2023/08/28 03:35:42;;;;;;;0.93;0.40;;;23.30;72.00;;;;;;10559037;28;20093;-33
2023/08/28 03:40:44;;;;;;;0.55;0.43;;;23.30;71.90;;;;;;10563353;28;20093;-32
2023/08/28 03:45:48;;;;;;;1.17;0.30;;;23.30;71.40;;;;;;10554834;28;20048;-32
2023/08/28 03:50:50;;;;;;;0.50;0.50;;;23.40;71.50;;;;;;10558991;28;20067;-39
2023/08/28 03:55:53;;;;;;;;;;;23.30;71.20;;;;;;10566265;28;20092;-31
2023/08/28 04:00:56;;;;;;;0.98;0.47;;;23.40;71.70;;;;;;10564790;28;19923;-32
2023/08/28 04:05:59;;;;;;;1.67;0.50;;;23.30;71.10;;;;;;10553693;28;20048;-32
2023/08/28 04:11:01;;;;;;;0.60;0.40;;;23.40;71.10;;;;;;10558766;28;20605;-31
2023/08/28 04:16:05;;;;;;;;;;;23.30;70.70;;;;;;10552556;28;20532;-38
2023/08/28 04:21:07;;;;;;;0.55;0.40;;;23.30;70.60;;;;;;10551242;28;20292;-30
2023/08/28 04:26:09;;;;;;;1.13;0.30;;;23.30;70.50;;;;;;10524743;28;20048;-29
2023/08/28 04:31:13;;;;;;;1.73;0.30;;;23.30;70.90;;;;;;10518060;28;20064;-31
2023/08/28 04:36:15;;;;;;;0.50;0.40;;;23.20;70.60;;;;;;10534792;28;20068;-34
2023/08/28 04:41:17;;;;;;;0.30;0.30;;;23.10;70.60;;;;;;10525723;28;20139;-37
2023/08/28 04:46:20;;;;;;;0.55;0.30;;;23.20;70.60;;;;;;10524674;28;20075;-35
2023/08/28 04:51:22;;;;;;;0.43;0.30;;;23.10;70.50;;;;;;10517673;28;20051;-32
2023/08/28 04:56:24;;;;;;;0.52;0.30;;;23.10;70.60;;;;;;10528116;28;20067;-34
2023/08/28 05:01:27;;;;;;;;;;;23.20;70.40;;;;;;10514821;28;20059;-38
2023/08/28 05:06:29;;;;;;;3.97;0.40;;;23.40;71.10;;;;;;10496286;28;19928;-40
2023/08/28 05:11:31;;;;;;;1.58;0.40;;;23.90;76.20;;;;;;10522481;28;20101;-41
2023/08/28 05:16:34;;;;;;;4.05;0.38;;;24.00;72.00;;;;;;10518624;28;20071;-28
2023/08/28 05:21:36;;;;;;;2.00;0.40;;;23.90;71.80;;;;;;10525052;28;20075;-38
2023/08/28 05:26:37;;;;;;;3.85;0.50;;;23.90;72.10;;;;;;10522154;28;20129;-32
2023/08/28 05:31:41;;;;;;;1.42;0.57;;;23.90;71.20;;;;;;10534092;28;20636;-37
2023/08/28 05:36:43;;;;;;;3.63;0.50;;;23.90;71.60;;;;;;10516505;28;20424;-32
2023/08/28 05:41:44;;;;;;;;;;;23.90;71.40;;;;;;10516754;28;20097;-31
2023/08/28 05:46:47;;;;;;;0.57;0.40;;;23.90;71.60;;;;;;10521823;28;20361;-37
2023/08/28 05:51:49;;;;;;;3.25;0.73;;;23.90;71.40;;;;;;10525701;28;20113;-34
2023/08/28 05:56:51;;;;;;;3.03;0.77;;;23.90;71.50;;;;;;10527517;28;20105;-39
2023/08/28 06:01:54;;;;;;;1.52;0.70;;;24.00;71.40;;;;;;10527348;28;20068;-34
2023/08/28 06:06:57;;;;;;;3.63;0.50;;;24.00;71.40;;;;;;10523806;28;20481;-34
2023/08/28 06:11:59;;;;;;;2.70;0.80;;;23.90;71.80;;;;;;10519168;28;20177;-33
2023/08/28 06:17:03;;;;;;;6.82;0.88;;;24.00;71.70;;;;;;10522026;28;20105;-36
2023/08/28 06:22:05;;;;;;;6.45;0.77;;;24.00;71.40;;;;;;10527634;28;20044;-38
2023/08/28 06:27:07;;;;;;;3.10;1.02;;;24.00;71.60;;;;;;10521547;28;20055;-34
2023/08/28 06:32:10;;;;;;;2.28;0.95;;;24.00;71.40;;;;;;10511673;28;20124;-32
2023/08/28 06:37:12;;;;;;;4.10;1.52;;;24.10;71.60;;;;;;10529274;28;20452;-35
2023/08/28 06:42:14;;;;;;;1.90;0.68;;;24.10;71.40;;;;;;10520050;28;20097;-32
2023/08/28 06:47:17;;;;;;;;;;;24.10;71.40;;;;;;10523469;28;20043;-36
2023/08/28 06:52:19;;;;;;;5.32;0.70;;;24.10;71.60;;;;;;10515175;28;20032;-33
2023/08/28 06:57:21;;;;;;;1.50;0.52;;;24.10;71.60;;;;;;10513184;28;20147;-35
2023/08/28 07:02:24;;;;;;;;;;;24.20;71.70;;;;;;10520278;28;20048;-39
2023/08/28 07:07:26;;;;;;;1.25;0.55;;;24.20;71.70;;;;;;10528006;28;19994;-39
2023/08/28 07:12:27;;;;;;;;;;;24.20;71.50;;;;;;10523309;28;20071;-36
2023/08/28 07:17:30;;;;;;;2.17;0.60;;;24.30;71.70;;;;;;10518771;28;20007;-41
2023/08/28 07:22:33;;;;;;;3.78;0.63;;;24.30;72.20;;;;;;10533420;28;20060;-42
2023/08/28 07:27:34;;;;;;;5.63;0.52;;;24.30;71.50;;;;;;10530269;28;20503;-36
2023/08/28 07:32:37;;;;;;;;;;;24.30;71.50;;;;;;10512471;28;20645;-39
2023/08/28 07:37:40;;;;;;;3.45;0.80;;;24.30;71.30;;;;;;10520037;28;19955;-33
2023/08/28 07:42:41;;;;;;;2.65;0.40;;;24.40;71.50;;;;;;10530765;28;20070;-33
2023/08/28 07:47:45;;;;;;;;;;;24.30;71.40;;;;;;10518483;28;20146;-34
2023/08/28 07:52:47;;;;;;;2.83;0.60;;;24.40;71.20;;;;;;10508211;28;19924;-38
2023/08/28 07:57:48;;;;;;;;;;;24.40;71.20;;;;;;10527893;28;20048;-40
2023/08/28 08:02:55;;;;;;;0.30;0.30;;;24.50;71.00;;;;;;10524351;28;19959;-34
2023/08/28 08:07:58;;;;;;;1.05;0.40;;;24.50;70.90;;;;;;10543036;28;20513;-40
2023/08/28 08:12:59;;;;;;;1.42;0.47;;;24.60;70.80;;;;;;10530251;28;20134;-38
2023/08/28 08:18:03;;;;;;;;;;;24.50;70.70;;;;;;10533191;28;20056;-39
2023/08/28 08:23:05;;;;;;;0.70;0.40;;;24.50;71.20;;;;;;10534461;28;19975;-37
2023/08/28 08:28:06;;;;;;;1.00;0.40;;;24.30;71.50;;;;;;10533227;28;20127;-40
2023/08/28 08:33:10;;;;;;;1.20;0.50;;;23.70;74.60;;;;;;10530489;28;20695;-31
2023/08/28 08:38:13;;;;;;;1.95;0.52;;;24.30;71.40;;;;;;10534860;28;20101;-37
2023/08/28 08:43:15;;;;;;;0.77;0.50;;;24.10;71.20;;;;;;10529169;28;20090;-33
2023/08/28 08:48:20;;;;;;;;;;;24.40;70.50;;;;;;10524230;28;20137;-41
2023/08/28 08:53:31;;;;;;;0.80;0.55;;;24.40;70.40;;;;;;10531028;28;19924;-33
2023/08/28 08:58:34;;;;;;;0.88;0.50;;;24.40;70.30;;;;;;10525472;28;20098;-31
2023/08/28 09:03:39;;;;;;;1.58;0.50;;;24.50;70.00;;;;;;10519293;28;20048;-35
2023/08/28 09:08:43;;;;;;;0.52;0.28;;;24.60;69.80;;;;;;10528275;28;20037;-32
2023/08/28 09:13:45;;;;;;;0.55;0.32;;;24.40;70.40;;;;;;10519954;28;20125;-37
2023/08/28 09:18:49;;;;;;;;;;;24.10;68.00;;;;;;10531256;28;20040;-33
2023/08/28 09:23:51;;;;;;;2.20;0.40;;;24.60;69.60;;;;;;10513790;28;19931;-32
2023/08/28 09:28:59;;;;;;;;;;;23.40;73.70;;;;;;10527238;28;20068;-40
2023/08/28 09:34:04;;;;;;;0.85;0.20;;;24.10;71.70;;;;;;10524766;28;19924;-34
2023/08/28 09:39:06;;;;;;;0.50;0.30;;;24.30;69.80;;;;;;10524510;28;20059;-35
2023/08/28 09:44:09;;;;;;;1.05;0.32;;;24.40;69.10;;;;;;10526389;28;20129;-32
2023/08/28 09:49:14;;;;;;;1.98;0.60;;;24.00;71.00;;;;;;10523603;28;20123;-36
2023/08/28 09:54:18;;;;;;;0.77;0.40;;;22.90;73.60;;;;;;10529552;28;20051;-39
2023/08/28 09:59:20;;;;;;;2.85;0.32;;;24.00;71.50;;;;;;10523170;28;20072;-39
2023/08/28 10:04:23;;;;;;;;;;;24.30;69.70;;;;;;10520565;28;20165;-41
2023/08/28 10:09:27;;;;;;;1.75;0.52;;;24.00;67.50;;;;;;10530257;28;19970;-36
2023/08/28 10:14:29;;;;;;;4.25;0.50;;;23.90;69.30;;;;;;10522448;28;20152;-34
2023/08/28 10:19:38;;;;;;;1.55;0.40;;;23.30;74.60;;;;;;10530912;28;20048;-37
2023/08/28 10:24:42;;;;;;;4.07;1.05;;;22.40;75.80;;;;;;10517897;28;20044;-36
2023/08/28 10:29:47;;;;;;;0.88;0.40;;;22.80;77.80;;;;;;10520207;28;20126;-33
2023/08/28 10:34:53;;;;;;;0.50;0.30;;;23.60;73.20;;;;;;10523714;28;20058;-35
2023/08/28 10:39:57;;;;;;;2.47;0.43;;;23.60;73.30;;;;;;10525526;28;20439;-36
2023/08/28 10:44:59;;;;;;;1.33;0.40;;;24.20;70.00;;;;;;10532347;28;20044;-40
2023/08/28 10:50:02;;;;;;;2.22;0.50;;;23.40;70.30;;;;;;10523715;28;20369;-37
2023/08/28 10:55:06;;;;;;;2.05;0.30;;;23.80;71.40;;;;;;10525491;28;20117;-33
2023/08/28 11:00:15;;;;;;;0.70;0.40;;;23.20;71.00;;;;;;10527707;28;20036;-36
2023/08/28 11:05:19;;;;;;;0.85;0.65;;;23.10;75.30;;;;;;10523284;28;20400;-40
2023/08/28 11:10:21;;;;;;;0.82;0.52;;;24.00;67.20;;;;;;10527353;28;20123;-34
2023/08/28 11:15:34;;;;;;;4.07;0.45;;;23.90;70.80;;;;;;10509808;28;20045;-32
2023/08/28 11:20:38;;;;;;;1.40;0.40;;;22.80;77.90;;;;;;10524083;28;20096;-34
2023/08/28 11:25:41;;;;;;;1.80;0.32;;;22.80;73.20;;;;;;10521160;28;20048;-32
2023/08/28 11:30:44;;;;;;;3.20;0.50;;;23.00;75.90;;;;;;10526222;28;20044;-33
2023/08/28 11:35:48;;;;;;;0.68;0.30;;;23.20;74.50;;;;;;10529040;28;20127;-36
2023/08/28 11:40:54;;;;;;;3.30;0.50;;;23.00;74.60;;;;;;10525628;28;20124;-35
2023/08/28 11:45:59;;;;;;;1.00;0.38;;;23.50;74.00;;;;;;10533711;28;20593;-29
2023/08/28 11:51:03;;;;;;;2.60;0.40;;;23.20;77.50;;;;;;10527960;28;20072;-34
2023/08/28 11:56:05;;;;;;;2.13;0.50;;;23.40;72.70;;;;;;10538661;28;20105;-37
2023/08/28 12:01:08;;;;;;;0.32;0.32;;;23.10;68.60;;;;;;10528460;28;20048;-34
2023/08/28 12:06:17;;;;;;;0.65;0.30;;;22.90;76.20;;;;;;10533321;28;20036;-36
2023/08/28 12:11:19;;;;;;;1.85;0.50;;;22.90;72.80;;;;;;10532913;28;20152;-32
2023/08/28 12:16:24;;;;;;;5.43;0.55;;;23.20;72.30;;;;;;10517265;28;20641;-36
2023/08/28 12:21:37;;;;;;;1.55;0.38;;;23.70;72.40;;;;;;10532438;28;20047;-40
2023/08/28 12:26:43;;;;;;;1.63;0.40;;;24.70;68.60;;;;;;10536360;28;20048;-33
2023/08/28 12:31:48;;;;;;;1.38;0.40;;;23.40;68.10;;;;;;10529735;28;20048;-38
2023/08/28 12:36:51;;;;;;;0.98;0.40;;;23.60;67.90;;;;;;10524966;28;20147;-33
2023/08/28 12:41:55;;;;;;;4.32;0.40;;;23.60;70.80;;;;;;10540581;28;20671;-34
2023/08/28 12:46:57;;;;;;;1.50;0.77;;;23.00;69.90;;;;;;10519342;28;20051;-33
2023/08/28 12:52:02;;;;;;;3.05;0.50;;;25.20;66.90;;;;;;10519387;28;20045;-32
2023/08/28 12:57:04;;;;;;;0.55;0.45;;;24.80;69.70;;;;;;10527154;28;20083;-37
2023/08/28 13:02:09;;;;;;;1.67;0.28;;;24.50;71.20;;;;;;10530222;28;20044;-37
2023/08/28 13:07:14;;;;;;;1.02;0.40;;;24.60;70.50;;;;;;10518012;28;20535;-32
2023/08/28 13:12:16;;;;;;;1.75;0.28;;;25.50;65.60;;;;;;10522794;28;20074;-33
2023/08/28 13:17:18;;;;;;;;;;;24.80;67.60;;;;;;10527679;28;20135;-36
2023/08/28 13:22:21;;;;;;;3.00;0.50;;;25.00;67.10;;;;;;10523417;28;19920;-34
2023/08/28 13:27:23;;;;;;;0.93;0.40;;;25.00;66.10;;;;;;10530059;28;20040;-35
2023/08/28 13:32:25;;;;;;;0.88;0.40;;;24.20;65.90;;;;;;10522957;28;20064;-31
2023/08/28 13:37:29;;;;;;;0.28;0.28;;;24.70;68.00;;;;;;10527612;28;20151;-34
2023/08/28 13:42:31;;;;;;;1.45;0.70;;;24.90;70.30;;;;;;10509393;28;20473;-41
2023/08/28 13:47:33;;;;;;;1.83;0.40;;;25.20;65.50;;;;;;10522487;28;20044;-38
2023/08/28 13:52:36;;;;;;;0.22;0.20;;;24.60;67.60;;;;;;10531012;28;20072;-36
2023/08/28 13:57:38;;;;;;;1.92;0.47;;;24.40;66.20;;;;;;10529513;28;20048;-41
2023/08/28 14:02:41;;;;;;;0.82;0.30;;;25.40;65.70;;;;;;10536819;28;20040;-32
2023/08/28 14:07:44;;;;;;;3.08;0.75;;;25.20;66.70;;;;;;10526460;28;20499;-41
2023/08/28 14:12:46;;;;;;;2.50;1.15;;;25.30;64.70;;;;;;10518568;28;20052;-33
2023/08/28 14:17:48;;;;;;;1.13;0.30;;;25.20;67.70;;;;;;10523012;28;20419;-35
2023/08/28 14:22:51;;;;;;;11.02;0.63;;;26.20;65.80;;;;;;10523520;28;20048;-35
2023/08/28 14:27:54;;;;;;;3.35;0.68;;;25.90;66.90;;;;;;10521327;28;20106;-34
2023/08/28 14:32:56;;;;;;;1.35;0.50;;;25.80;65.90;;;;;;10517986;28;20114;-35
2023/08/28 14:37:59;;;;;;;3.33;0.32;;;25.10;62.80;;;;;;10523374;28;20087;-33
2023/08/28 14:43:01;;;;;;;2.58;0.57;;;25.90;65.00;;;;;;10520350;28;20105;-35
2023/08/28 14:48:04;;;;;;;0.80;0.40;;;26.60;64.00;;;;;;10526024;28;20036;-34
2023/08/28 14:53:07;;;;;;;1.65;0.38;;;26.30;63.60;;;;;;10526909;28;20055;-36
2023/08/28 14:58:09;;;;;;;2.60;0.30;;;26.80;63.00;;;;;;10523131;28;20079;-40
2023/08/28 15:03:11;;;;;;;0.63;0.40;;;26.80;63.20;;;;;;10515121;28;20051;-32
2023/08/28 15:08:14;;;;;;;4.43;0.40;;;26.20;62.80;;;;;;10527234;28;20050;-36
2023/08/28 15:13:16;;;;;;;0.60;0.47;;;26.70;60.70;;;;;;10517515;28;20087;-38
2023/08/28 15:18:18;;;;;;;1.75;0.30;;;26.50;64.00;;;;;;10532636;28;20418;-32
2023/08/28 15:23:21;;;;;;;1.15;0.40;;;27.20;62.10;;;;;;10526455;28;20093;-34
2023/08/28 15:28:23;;;;;;;1.33;0.32;;;27.10;62.10;;;;;;10530079;28;20074;-35
2023/08/28 15:33:25;;;;;;;1.65;0.20;;;27.30;61.60;;;;;;10520212;28;20044;-28
2023/08/28 15:38:28;;;;;;;0.63;0.22;;;27.30;61.00;;;;;;10542800;27;20083;-35
2023/08/28 15:43:33;;;;;;;0.70;0.30;;;27.60;60.30;;;;;;10524729;28;20465;-38
2023/08/28 15:48:35;;;;;;;1.95;0.50;;;27.50;60.60;;;;;;10521201;28;20533;-41
2023/08/28 15:53:38;;;;;;;0.80;0.30;;;27.40;60.40;;;;;;10512446;28;20060;-37
2023/08/28 15:58:40;;;;;;;2.30;0.50;;;27.50;60.20;;;;;;10522925;28;20101;-35
2023/08/28 16:03:42;;;;;;;0.90;0.20;;;27.80;59.70;;;;;;10512209;28;20079;-35
2023/08/28 16:08:45;;;;;;;1.05;0.30;;;27.90;59.00;;;;;;10515461;28;20615;-37
2023/08/28 16:13:47;;;;;;;1.35;0.40;;;27.60;59.90;;;;;;10517436;28;20459;-35
2023/08/28 16:18:49;;;;;;;0.30;0.20;;;27.60;60.50;;;;;;10525575;28;20051;-34
2023/08/28 16:23:52;;;;;;;1.67;0.30;;;27.70;59.20;;;;;;10515044;28;20047;-34
2023/08/28 16:28:54;;;;;;;1.30;0.50;;;27.80;60.20;;;;;;10530732;28;20472;-32
2023/08/28 16:33:56;;;;;;;0.68;0.20;;;28.30;59.80;;;;;;10528427;28;20185;-35
2023/08/28 16:39:00;;;;;;;3.00;0.40;;;28.30;57.90;;;;;;10522351;28;20451;-35
2023/08/28 16:44:02;;;;;;;0.93;0.30;;;28.20;57.90;;;;;;10533877;28;20198;-34
2023/08/28 16:49:04;;;;;;;2.50;0.50;;;28.20;58.30;;;;;;10512998;28;20063;-32
2023/08/28 16:54:07;;;;;;;0.75;0.40;;;28.20;59.20;;;;;;10519795;28;20044;-38
2023/08/28 16:59:10;;;;;;;2.38;0.40;;;27.70;58.00;;;;;;10516069;28;20155;-34
2023/08/28 17:04:12;;;;;;;0.63;0.35;;;28.30;59.20;;;;;;10530696;28;20259;-38
2023/08/28 17:09:16;;;;;;;1.45;0.30;;;28.50;58.50;;;;;;10520678;28;20062;-37
2023/08/28 17:14:18;;;;;;;0.50;0.20;;;28.70;59.00;;;;;;10521821;28;20063;-36
2023/08/28 17:19:20;;;;;;;2.08;0.30;;;28.20;60.00;;;;;;10516181;28;20069;-36
2023/08/28 17:24:24;;;;;;;1.45;0.35;;;28.60;58.80;;;;;;10519302;28;20558;-37
2023/08/28 17:29:26;;;;;;;2.95;0.30;;;28.60;58.70;;;;;;10531872;28;20075;-36
2023/08/28 17:34:28;;;;;;;1.05;0.32;;;28.70;58.40;;;;;;10522397;28;20599;-41
2023/08/28 17:39:31;;;;;;;0.55;0.22;;;28.70;58.60;;;;;;10518396;28;20105;-34
2023/08/28 17:44:33;;;;;;;0.45;0.20;;;28.30;59.70;;;;;;10528267;28;20044;-33
2023/08/28 17:49:35;;;;;;;0.93;0.30;;;28.60;59.70;;;;;;10516666;28;20052;-36
2023/08/28 17:54:39;;;;;;;0.60;0.30;;;28.50;58.80;;;;;;10524124;28;20090;-38
2023/08/28 17:59:41;;;;;;;4.13;0.40;;;28.70;58.40;;;;;;10527163;28;20093;-34
2023/08/28 18:04:43;;;;;;;0.65;0.30;;;28.70;58.80;;;;;;10520775;28;20060;-35
2023/08/28 18:09:46;;;;;;;0.50;0.25;;;28.70;58.80;;;;;;10518342;28;20682;-33
2023/08/28 18:14:48;;;;;;;3.65;0.40;;;28.70;58.70;;;;;;10523410;28;20083;-38
2023/08/28 18:19:50;;;;;;;3.00;0.38;;;28.70;59.30;;;;;;10519305;28;20831;-36
2023/08/28 18:24:53;;;;;;;2.22;0.20;;;28.60;58.80;;;;;;10521734;28;20067;-36
2023/08/28 18:29:55;;;;;;;5.15;0.32;;;28.40;59.00;;;;;;10528121;28;20134;-33
2023/08/28 18:34:57;;;;;;;1.75;0.35;;;28.50;59.10;;;;;;10514459;28;20140;-38
2023/08/28 18:40:00;;;;;;;1.15;0.35;;;28.50;59.10;;;;;;10513122;28;20067;-34
2023/08/28 18:45:04;;;;;;;3.83;0.40;;;28.40;59.20;;;;;;10506819;28;20094;-34
2023/08/28 18:50:06;;;;;;;2.53;0.30;;;28.40;59.20;;;;;;10526455;28;20051;-33
2023/08/28 18:55:12;;;;;;;1.55;0.30;;;28.30;59.30;;;;;;10517550;28;20108;-43
2023/08/28 19:00:15;;;;;;;4.38;0.68;;;28.30;59.40;;;;;;10518750;28;20400;-39
2023/08/28 19:05:16;;;;;;;5.20;0.40;;;28.20;59.40;;;;;;10518976;28;20056;-39
2023/08/28 19:10:20;;;;;;;3.67;0.75;;;28.20;59.60;;;;;;10525152;28;20457;-35
2023/08/28 19:15:22;;;;;;;5.55;0.70;;;28.20;59.70;;;;;;10512922;28;20060;-33
2023/08/28 19:20:24;;;;;;;4.85;0.90;;;28.10;59.80;;;;;;10514317;28;20840;-34
2023/08/28 19:25:27;;;;;;;9.73;1.38;;;28.00;59.80;;;;;;10525928;28;20039;-34
2023/08/28 19:30:29;;;;;;;6.65;1.20;;;28.00;59.80;;;;;;10513089;28;20479;-35
2023/08/28 19:35:31;;;;;;;11.85;1.60;;;28.00;59.90;;;;;;10514512;28;20535;-40
2023/08/28 19:40:34;;;;;;;19.85;2.20;;;27.90;59.90;;;;;;10520273;28;20040;-36
2023/08/28 19:45:36;;;;;;;15.60;2.40;;;27.90;60.00;;;;;;10523243;28;20048;-37
2023/08/28 19:50:38;;;;;;;11.20;1.77;;;27.90;60.00;;;;;;10521694;28;20075;-42
2023/08/28 19:55:41;;;;;;;12.00;1.40;;;27.80;60.00;;;;;;10519437;28;20102;-32
2023/08/28 20:00:43;;;;;;;12.00;1.55;;;27.80;60.10;;;;;;10526398;28;20128;-34
2023/08/28 20:05:45;;;;;;;7.25;1.75;;;27.80;60.20;;;;;;10529795;28;20101;-42
2023/08/28 20:10:52;;;;;;;9.35;1.52;;;27.70;60.20;;;;;;10514763;28;20056;-38
2023/08/28 20:15:54;;;;;;;9.50;0.90;;;27.70;60.30;;;;;;10521682;28;20840;-39
2023/08/28 20:20:55;;;;;;;6.20;0.80;;;27.60;60.30;;;;;;10528045;28;20044;-38
2023/08/28 20:25:59;;;;;;;6.38;0.75;;;27.60;60.30;;;;;;10523467;28;20044;-36
2023/08/28 20:31:01;;;;;;;8.68;1.63;;;27.60;60.40;;;;;;10519319;28;20055;-38
2023/08/28 20:36:02;;;;;;;7.05;1.55;;;27.50;60.40;;;;;;10534713;28;20091;-33
2023/08/28 20:41:06;;;;;;;5.13;1.55;;;27.50;60.40;;;;;;10520523;28;20059;-38
2023/08/28 20:46:08;;;;;;;3.33;1.30;;;27.40;60.50;;;;;;10529679;28;20562;-37
2023/08/28 20:51:10;;;;;;;5.18;2.05;;;27.40;60.50;;;;;;10533269;28;20048;-34
2023/08/28 20:56:13;;;;;;;2.08;1.48;;;27.30;60.50;;;;;;10525865;28;20410;-35
2023/08/28 21:01:15;;;;;;;3.22;1.13;;;27.30;60.80;;;;;;10524845;28;20068;-36
2023/08/28 21:06:16;;;;;;;2.30;1.45;;;27.30;60.80;;;;;;10525658;28;20093;-38
2023/08/28 21:11:20;;;;;;;2.20;1.20;;;27.20;60.70;;;;;;10524452;28;20079;-35
2023/08/28 21:16:21;;;;;;;4.70;1.55;;;27.20;60.80;;;;;;10530470;28;20052;-37
2023/08/28 21:21:23;;;;;;;6.15;1.30;;;27.20;61.00;;;;;;10537355;28;20044;-39
2023/08/28 21:26:26;;;;;;;3.13;1.13;;;27.20;61.00;;;;;;10533664;28;20131;-35
2023/08/28 21:31:28;;;;;;;6.40;1.40;;;27.20;61.20;;;;;;10529402;28;20052;-32
2023/08/28 21:36:31;;;;;;;3.25;1.15;;;27.10;61.30;;;;;;10532415;28;20102;-38
2023/08/28 21:41:34;;;;;;;4.47;1.42;;;27.10;61.30;;;;;;10526289;28;20101;-33
2023/08/28 21:46:36;;;;;;;4.35;1.70;;;27.10;61.40;;;;;;10521641;28;20047;-36
2023/08/28 21:51:39;;;;;;;2.22;1.23;;;27.00;61.50;;;;;;10534108;28;20048;-33
2023/08/28 21:56:43;;;;;;;6.95;2.13;;;27.00;61.60;;;;;;10533129;28;20077;-34
2023/08/28 22:01:44;;;;;;;5.10;1.20;;;27.00;61.60;;;;;;10522282;28;20090;-39
2023/08/28 22:06:46;;;;;;;3.00;1.45;;;27.00;61.70;;;;;;10533813;28;20073;-34
2023/08/28 22:11:50;;;;;;;3.85;1.50;;;26.90;61.70;;;;;;10532579;28;20113;-41
2023/08/28 22:16:52;;;;;;;2.47;1.27;;;26.90;61.70;;;;;;10516166;28;20052;-34
2023/08/28 22:21:55;;;;;;;3.15;1.25;;;26.90;61.80;;;;;;10517919;28;20049;-39
2023/08/28 22:26:59;;;;;;;2.83;1.40;;;26.80;61.90;;;;;;10512510;28;20377;-32
2023/08/28 22:32:02;;;;;;;3.47;1.52;;;26.80;61.90;;;;;;10521535;28;20052;-38
2023/08/28 22:37:04;;;;;;;2.55;1.27;;;26.80;62.00;;;;;;10522963;28;20080;-34
2023/08/28 22:42:07;;;;;;;2.10;1.27;;;26.70;62.00;;;;;;10507792;28;20458;-34
2023/08/28 22:47:10;;;;;;;3.17;1.23;;;26.70;62.10;;;;;;10521137;28;20455;-33
2023/08/28 22:52:12;;;;;;;2.70;1.17;;;26.70;62.10;;;;;;10515571;28;20338;-35
2023/08/28 22:57:15;;;;;;;2.97;1.70;;;26.60;62.20;;;;;;10528784;28;20492;-31
2023/08/28 23:02:17;;;;;;;3.15;1.70;;;26.60;62.10;;;;;;10507878;28;20101;-32
2023/08/28 23:07:19;;;;;;;2.72;0.88;;;26.50;62.20;;;;;;10530102;28;20040;-39
2023/08/28 23:12:23;;;;;;;2.60;1.20;;;26.50;62.30;;;;;;10518778;28;20063;-35
2023/08/28 23:17:24;;;;;;;2.20;1.33;;;26.50;62.30;;;;;;10528153;28;20044;-45
2023/08/28 23:22:26;;;;;;;1.75;1.17;;;26.50;62.40;;;;;;10530498;28;20117;-36
2023/08/28 23:27:30;;;;;;;3.00;1.30;;;26.40;62.40;;;;;;10526003;28;20076;-36
2023/08/28 23:32:31;;;;;;;3.55;1.10;;;26.40;62.50;;;;;;10529009;28;20466;-36
2023/08/28 23:37:33;;;;;;;2.45;1.40;;;26.30;62.50;;;;;;10533971;28;20404;-32
2023/08/28 23:42:37;;;;;;;2.47;0.98;;;26.30;62.60;;;;;;10532972;28;20048;-39
2023/08/28 23:47:38;;;;;;;3.35;1.50;;;26.30;62.60;;;;;;10533999;28;20072;-38
2023/08/28 23:52:40;;;;;;;2.65;1.20;;;26.20;62.60;;;;;;10532072;28;20454;-34
2023/08/28 23:57:43;;;;;;;2.38;1.15;;;26.20;62.60;;;;;;10534281;28;20091;-36
